sensor_id;sensor_type;location;lat;lon;timestamp;temperature;humidity
15834;DHT22;8017;50.812;4.934;2023-05-16T00:00:08;10.00;99.90
15834;DHT22;8017;50.812;4.934;2023-05-16T00:03:10;10.00;99.90
15834;DHT22;8017;50.812;4.934;2023-05-16T00:06:12;10.00;99.90
15834;DHT22;8017;50.812;4.934;2023-05-16T00:09:16;10.00;99.90
15834;DHT22;8017;50.812;4.934;2023-05-16T00:12:18;10.00;99.90
15834;DHT22;8017;50.812;4.934;2023-05-16T00:15:22;9.90;99.90
15834;DHT22;8017;50.812;4.934;2023-05-16T00:18:24;10.00;99.90
15834;DHT22;8017;50.812;4.934;2023-05-16T00:21:26;9.90;99.90
15834;DHT22;8017;50.812;4.934;2023-05-16T00:24:30;9.80;99.90
15834;DHT22;8017;50.812;4.934;2023-05-16T00:27:33;9.70;99.90
15834;DHT22;8017;50.812;4.934;2023-05-16T00:30:35;9.80;99.90
15834;DHT22;8017;50.812;4.934;2023-05-16T00:33:37;9.80;99.90
15834;DHT22;8017;50.812;4.934;2023-05-16T00:36:39;9.70;99.90
15834;DHT22;8017;50.812;4.934;2023-05-16T00:39:42;9.60;99.90
15834;DHT22;8017;50.812;4.934;2023-05-16T00:42:44;9.50;99.90
15834;DHT22;8017;50.812;4.934;2023-05-16T00:45:46;9.40;99.90
15834;DHT22;8017;50.812;4.934;2023-05-16T00:48:48;9.20;99.90
15834;DHT22;8017;50.812;4.934;2023-05-16T00:51:50;9.10;99.90
15834;DHT22;8017;50.812;4.934;2023-05-16T00:54:54;9.00;99.90
15834;DHT22;8017;50.812;4.934;2023-05-16T00:57:57;8.80;99.90
15834;DHT22;8017;50.812;4.934;2023-05-16T01:00:59;8.70;99.90
15834;DHT22;8017;50.812;4.934;2023-05-16T01:04:04;8.70;99.90
15834;DHT22;8017;50.812;4.934;2023-05-16T01:07:06;8.70;99.90
15834;DHT22;8017;50.812;4.934;2023-05-16T01:10:10;8.50;99.90
15834;DHT22;8017;50.812;4.934;2023-05-16T01:13:17;8.40;99.90
15834;DHT22;8017;50.812;4.934;2023-05-16T01:16:28;8.30;99.90
15834;DHT22;8017;50.812;4.934;2023-05-16T01:19:46;8.20;99.90
15834;DHT22;8017;50.812;4.934;2023-05-16T01:23:03;8.10;99.90
15834;DHT22;8017;50.812;4.934;2023-05-16T01:26:17;8.00;99.90
15834;DHT22;8017;50.812;4.934;2023-05-16T01:29:20;8.00;99.90
15834;DHT22;8017;50.812;4.934;2023-05-16T01:32:22;7.90;99.90
15834;DHT22;8017;50.812;4.934;2023-05-16T01:35:24;7.80;99.90
15834;DHT22;8017;50.812;4.934;2023-05-16T01:38:32;7.70;99.90
15834;DHT22;8017;50.812;4.934;2023-05-16T01:41:46;7.70;99.90
15834;DHT22;8017;50.812;4.934;2023-05-16T01:44:52;7.70;99.90
15834;DHT22;8017;50.812;4.934;2023-05-16T01:48:02;7.60;99.90
15834;DHT22;8017;50.812;4.934;2023-05-16T01:51:06;7.60;99.90
15834;DHT22;8017;50.812;4.934;2023-05-16T01:54:11;7.60;99.90
15834;DHT22;8017;50.812;4.934;2023-05-16T01:57:15;7.50;99.90
15834;DHT22;8017;50.812;4.934;2023-05-16T02:00:18;7.40;99.90
15834;DHT22;8017;50.812;4.934;2023-05-16T02:03:21;7.40;99.90
15834;DHT22;8017;50.812;4.934;2023-05-16T02:06:23;7.30;99.90
15834;DHT22;8017;50.812;4.934;2023-05-16T02:09:25;7.30;99.90
15834;DHT22;8017;50.812;4.934;2023-05-16T02:12:28;7.30;99.90
15834;DHT22;8017;50.812;4.934;2023-05-16T02:15:30;7.20;99.90
15834;DHT22;8017;50.812;4.934;2023-05-16T02:18:32;7.10;99.90
15834;DHT22;8017;50.812;4.934;2023-05-16T02:21:34;7.20;99.90
15834;DHT22;8017;50.812;4.934;2023-05-16T02:24:36;7.10;99.90
15834;DHT22;8017;50.812;4.934;2023-05-16T02:27:39;7.10;99.90
15834;DHT22;8017;50.812;4.934;2023-05-16T02:30:42;7.10;99.90
15834;DHT22;8017;50.812;4.934;2023-05-16T02:33:44;7.10;99.90
15834;DHT22;8017;50.812;4.934;2023-05-16T02:36:46;7.00;99.90
15834;DHT22;8017;50.812;4.934;2023-05-16T02:39:48;7.00;99.90
15834;DHT22;8017;50.812;4.934;2023-05-16T02:42:51;6.90;99.90
15834;DHT22;8017;50.812;4.934;2023-05-16T02:45:53;6.90;99.90
15834;DHT22;8017;50.812;4.934;2023-05-16T02:48:55;6.90;99.90
15834;DHT22;8017;50.812;4.934;2023-05-16T02:51:57;6.80;99.90
15834;DHT22;8017;50.812;4.934;2023-05-16T02:54:59;6.80;99.90
15834;DHT22;8017;50.812;4.934;2023-05-16T02:58:03;6.80;99.90
15834;DHT22;8017;50.812;4.934;2023-05-16T03:01:05;6.80;99.90
15834;DHT22;8017;50.812;4.934;2023-05-16T03:04:07;6.80;99.90
15834;DHT22;8017;50.812;4.934;2023-05-16T03:07:08;6.70;99.90
15834;DHT22;8017;50.812;4.934;2023-05-16T03:10:10;6.70;99.90
15834;DHT22;8017;50.812;4.934;2023-05-16T03:13:14;6.60;99.90
15834;DHT22;8017;50.812;4.934;2023-05-16T03:16:16;6.60;99.90
15834;DHT22;8017;50.812;4.934;2023-05-16T03:19:18;6.60;99.90
15834;DHT22;8017;50.812;4.934;2023-05-16T03:22:20;6.60;99.90
15834;DHT22;8017;50.812;4.934;2023-05-16T03:25:21;6.60;99.90
15834;DHT22;8017;50.812;4.934;2023-05-16T03:28:26;6.50;99.90
15834;DHT22;8017;50.812;4.934;2023-05-16T03:31:29;6.40;99.90
15834;DHT22;8017;50.812;4.934;2023-05-16T03:34:32;6.40;99.90
15834;DHT22;8017;50.812;4.934;2023-05-16T03:37:34;6.40;99.90
15834;DHT22;8017;50.812;4.934;2023-05-16T03:40:36;6.40;99.90
15834;DHT22;8017;50.812;4.934;2023-05-16T03:43:39;6.40;99.90
15834;DHT22;8017;50.812;4.934;2023-05-16T03:46:41;6.30;99.90
15834;DHT22;8017;50.812;4.934;2023-05-16T03:49:43;6.30;99.90
15834;DHT22;8017;50.812;4.934;2023-05-16T03:52:45;6.30;99.90
15834;DHT22;8017;50.812;4.934;2023-05-16T03:55:47;6.30;99.90
15834;DHT22;8017;50.812;4.934;2023-05-16T03:58:50;6.40;99.90
15834;DHT22;8017;50.812;4.934;2023-05-16T04:01:52;6.60;99.90
15834;DHT22;8017;50.812;4.934;2023-05-16T04:04:54;6.60;99.90
15834;DHT22;8017;50.812;4.934;2023-05-16T04:07:55;6.70;99.90
15834;DHT22;8017;50.812;4.934;2023-05-16T04:10:57;6.60;99.90
15834;DHT22;8017;50.812;4.934;2023-05-16T04:14:01;6.50;99.90
15834;DHT22;8017;50.812;4.934;2023-05-16T04:17:03;6.50;99.90
15834;DHT22;8017;50.812;4.934;2023-05-16T04:20:05;6.60;99.90
15834;DHT22;8017;50.812;4.934;2023-05-16T04:23:08;6.60;99.90
15834;DHT22;8017;50.812;4.934;2023-05-16T04:26:11;7.00;99.90
15834;DHT22;8017;50.812;4.934;2023-05-16T04:29:15;7.40;99.90
15834;DHT22;8017;50.812;4.934;2023-05-16T04:32:17;7.90;99.90
15834;DHT22;8017;50.812;4.934;2023-05-16T04:35:19;8.40;99.90
15834;DHT22;8017;50.812;4.934;2023-05-16T04:38:21;8.90;99.90
15834;DHT22;8017;50.812;4.934;2023-05-16T04:41:23;9.50;99.90
15834;DHT22;8017;50.812;4.934;2023-05-16T04:44:27;9.80;99.90
15834;DHT22;8017;50.812;4.934;2023-05-16T04:47:29;9.50;99.90
15834;DHT22;8017;50.812;4.934;2023-05-16T04:50:31;8.90;99.90
15834;DHT22;8017;50.812;4.934;2023-05-16T04:53:33;8.40;99.90
15834;DHT22;8017;50.812;4.934;2023-05-16T04:56:35;8.20;99.90
15834;DHT22;8017;50.812;4.934;2023-05-16T04:59:38;7.90;99.90
15834;DHT22;8017;50.812;4.934;2023-05-16T05:02:40;8.00;99.90
15834;DHT22;8017;50.812;4.934;2023-05-16T05:05:43;8.10;99.90
15834;DHT22;8017;50.812;4.934;2023-05-16T05:08:45;8.00;99.90
15834;DHT22;8017;50.812;4.934;2023-05-16T05:11:50;8.10;99.90
15834;DHT22;8017;50.812;4.934;2023-05-16T05:14:53;8.30;99.90
15834;DHT22;8017;50.812;4.934;2023-05-16T05:17:55;8.30;99.90
15834;DHT22;8017;50.812;4.934;2023-05-16T05:20:57;8.40;99.90
15834;DHT22;8017;50.812;4.934;2023-05-16T05:23:59;8.50;99.90
15834;DHT22;8017;50.812;4.934;2023-05-16T05:27:01;8.60;99.90
15834;DHT22;8017;50.812;4.934;2023-05-16T05:30:05;8.60;99.90
15834;DHT22;8017;50.812;4.934;2023-05-16T05:33:09;8.60;99.90
15834;DHT22;8017;50.812;4.934;2023-05-16T05:36:11;8.70;99.90
15834;DHT22;8017;50.812;4.934;2023-05-16T05:39:13;8.70;99.90
15834;DHT22;8017;50.812;4.934;2023-05-16T05:42:15;8.80;99.90
15834;DHT22;8017;50.812;4.934;2023-05-16T05:45:19;9.00;99.90
15834;DHT22;8017;50.812;4.934;2023-05-16T05:48:21;9.10;99.90
15834;DHT22;8017;50.812;4.934;2023-05-16T05:51:23;9.10;99.90
15834;DHT22;8017;50.812;4.934;2023-05-16T05:54:25;9.10;99.90
15834;DHT22;8017;50.812;4.934;2023-05-16T05:57:27;9.00;99.90
15834;DHT22;8017;50.812;4.934;2023-05-16T06:00:30;9.00;99.90
15834;DHT22;8017;50.812;4.934;2023-05-16T06:03:33;9.20;99.90
15834;DHT22;8017;50.812;4.934;2023-05-16T06:06:36;9.20;99.90
15834;DHT22;8017;50.812;4.934;2023-05-16T06:09:39;9.40;99.90
15834;DHT22;8017;50.812;4.934;2023-05-16T06:12:42;9.40;99.90
15834;DHT22;8017;50.812;4.934;2023-05-16T06:15:50;9.40;99.90
15834;DHT22;8017;50.812;4.934;2023-05-16T06:18:52;9.60;99.90
15834;DHT22;8017;50.812;4.934;2023-05-16T06:21:54;9.60;99.90
15834;DHT22;8017;50.812;4.934;2023-05-16T06:24:56;9.80;99.90
15834;DHT22;8017;50.812;4.934;2023-05-16T06:27:58;9.70;99.90
15834;DHT22;8017;50.812;4.934;2023-05-16T06:31:01;9.70;99.90
15834;DHT22;8017;50.812;4.934;2023-05-16T06:34:03;9.90;99.90
15834;DHT22;8017;50.812;4.934;2023-05-16T06:37:05;9.90;99.90
15834;DHT22;8017;50.812;4.934;2023-05-16T06:40:08;10.00;99.90
15834;DHT22;8017;50.812;4.934;2023-05-16T06:43:10;10.10;99.90
15834;DHT22;8017;50.812;4.934;2023-05-16T06:46:13;10.00;99.90
15834;DHT22;8017;50.812;4.934;2023-05-16T06:49:15;10.20;99.90
15834;DHT22;8017;50.812;4.934;2023-05-16T06:52:18;10.20;99.90
15834;DHT22;8017;50.812;4.934;2023-05-16T06:55:20;10.20;99.90
15834;DHT22;8017;50.812;4.934;2023-05-16T06:58:22;10.40;99.90
15834;DHT22;8017;50.812;4.934;2023-05-16T07:01:25;10.40;99.90
15834;DHT22;8017;50.812;4.934;2023-05-16T07:04:27;10.50;99.90
15834;DHT22;8017;50.812;4.934;2023-05-16T07:07:29;10.60;99.90
15834;DHT22;8017;50.812;4.934;2023-05-16T07:10:31;10.80;99.90
15834;DHT22;8017;50.812;4.934;2023-05-16T07:13:33;11.00;99.90
15834;DHT22;8017;50.812;4.934;2023-05-16T07:16:36;11.40;99.90
15834;DHT22;8017;50.812;4.934;2023-05-16T07:19:38;11.50;99.90
15834;DHT22;8017;50.812;4.934;2023-05-16T07:22:40;11.60;99.90
15834;DHT22;8017;50.812;4.934;2023-05-16T07:25:42;11.80;99.90
15834;DHT22;8017;50.812;4.934;2023-05-16T07:28:44;12.10;99.90
15834;DHT22;8017;50.812;4.934;2023-05-16T07:31:47;12.10;99.90
15834;DHT22;8017;50.812;4.934;2023-05-16T07:34:49;12.00;99.90
15834;DHT22;8017;50.812;4.934;2023-05-16T07:37:51;11.90;99.90
15834;DHT22;8017;50.812;4.934;2023-05-16T07:40:53;12.10;99.90
15834;DHT22;8017;50.812;4.934;2023-05-16T07:43:55;12.50;99.90
15834;DHT22;8017;50.812;4.934;2023-05-16T07:46:59;12.60;99.90
15834;DHT22;8017;50.812;4.934;2023-05-16T07:50:01;12.60;99.90
15834;DHT22;8017;50.812;4.934;2023-05-16T07:53:03;12.50;99.90
15834;DHT22;8017;50.812;4.934;2023-05-16T07:56:06;12.20;99.90
15834;DHT22;8017;50.812;4.934;2023-05-16T07:59:08;12.40;99.90
15834;DHT22;8017;50.812;4.934;2023-05-16T08:02:11;12.30;99.90
15834;DHT22;8017;50.812;4.934;2023-05-16T08:05:13;12.20;99.90
15834;DHT22;8017;50.812;4.934;2023-05-16T08:08:15;12.30;99.90
15834;DHT22;8017;50.812;4.934;2023-05-16T08:11:18;12.60;99.90
15834;DHT22;8017;50.812;4.934;2023-05-16T08:14:22;12.70;99.90
15834;DHT22;8017;50.812;4.934;2023-05-16T08:17:25;12.80;99.90
15834;DHT22;8017;50.812;4.934;2023-05-16T08:20:27;12.70;99.90
15834;DHT22;8017;50.812;4.934;2023-05-16T08:23:29;12.80;99.90
15834;DHT22;8017;50.812;4.934;2023-05-16T08:26:31;12.60;99.90
15834;DHT22;8017;50.812;4.934;2023-05-16T08:29:34;12.90;99.90
15834;DHT22;8017;50.812;4.934;2023-05-16T08:32:37;13.00;99.90
15834;DHT22;8017;50.812;4.934;2023-05-16T08:35:41;12.90;99.90
15834;DHT22;8017;50.812;4.934;2023-05-16T08:38:43;12.90;99.90
15834;DHT22;8017;50.812;4.934;2023-05-16T08:41:45;12.70;99.90
15834;DHT22;8017;50.812;4.934;2023-05-16T08:44:47;12.60;99.90
15834;DHT22;8017;50.812;4.934;2023-05-16T08:47:53;12.60;99.90
15834;DHT22;8017;50.812;4.934;2023-05-16T08:50:56;12.70;99.90
15834;DHT22;8017;50.812;4.934;2023-05-16T08:54:01;12.90;99.90
15834;DHT22;8017;50.812;4.934;2023-05-16T08:57:05;12.70;99.90
15834;DHT22;8017;50.812;4.934;2023-05-16T09:00:08;12.60;99.90
15834;DHT22;8017;50.812;4.934;2023-05-16T09:03:13;12.80;99.90
15834;DHT22;8017;50.812;4.934;2023-05-16T09:06:16;13.20;99.90
15834;DHT22;8017;50.812;4.934;2023-05-16T09:09:18;13.50;99.90
15834;DHT22;8017;50.812;4.934;2023-05-16T09:12:20;13.80;99.90
15834;DHT22;8017;50.812;4.934;2023-05-16T09:15:22;13.90;99.90
15834;DHT22;8017;50.812;4.934;2023-05-16T09:18:25;13.90;99.90
15834;DHT22;8017;50.812;4.934;2023-05-16T09:21:29;14.20;99.90
15834;DHT22;8017;50.812;4.934;2023-05-16T09:24:32;14.10;99.90
15834;DHT22;8017;50.812;4.934;2023-05-16T09:27:34;13.80;99.90
15834;DHT22;8017;50.812;4.934;2023-05-16T09:30:36;13.80;99.90
15834;DHT22;8017;50.812;4.934;2023-05-16T09:33:41;13.80;99.90
15834;DHT22;8017;50.812;4.934;2023-05-16T09:36:43;14.10;99.90
15834;DHT22;8017;50.812;4.934;2023-05-16T09:39:46;14.40;99.90
15834;DHT22;8017;50.812;4.934;2023-05-16T09:43:01;14.60;99.90
15834;DHT22;8017;50.812;4.934;2023-05-16T09:46:03;14.60;99.90
15834;DHT22;8017;50.812;4.934;2023-05-16T09:49:11;14.40;99.90
15834;DHT22;8017;50.812;4.934;2023-05-16T09:52:13;13.80;99.90
15834;DHT22;8017;50.812;4.934;2023-05-16T09:55:15;13.90;99.90
15834;DHT22;8017;50.812;4.934;2023-05-16T09:58:17;13.80;99.90
15834;DHT22;8017;50.812;4.934;2023-05-16T10:01:19;14.00;99.90
15834;DHT22;8017;50.812;4.934;2023-05-16T10:04:23;13.80;99.90
15834;DHT22;8017;50.812;4.934;2023-05-16T10:07:25;13.70;99.90
15834;DHT22;8017;50.812;4.934;2023-05-16T10:10:28;13.70;99.90
15834;DHT22;8017;50.812;4.934;2023-05-16T10:13:32;14.00;99.90
15834;DHT22;8017;50.812;4.934;2023-05-16T10:16:34;14.40;99.90
15834;DHT22;8017;50.812;4.934;2023-05-16T10:19:38;15.00;99.90
15834;DHT22;8017;50.812;4.934;2023-05-16T10:22:42;15.10;99.90
15834;DHT22;8017;50.812;4.934;2023-05-16T10:25:46;15.10;99.90
15834;DHT22;8017;50.812;4.934;2023-05-16T10:28:48;14.90;99.90
15834;DHT22;8017;50.812;4.934;2023-05-16T10:31:51;14.90;99.90
15834;DHT22;8017;50.812;4.934;2023-05-16T10:34:55;14.80;99.90
15834;DHT22;8017;50.812;4.934;2023-05-16T10:37:58;14.60;99.90
15834;DHT22;8017;50.812;4.934;2023-05-16T10:41:01;14.70;99.90
15834;DHT22;8017;50.812;4.934;2023-05-16T10:44:05;15.10;99.90
15834;DHT22;8017;50.812;4.934;2023-05-16T10:47:17;15.40;99.90
15834;DHT22;8017;50.812;4.934;2023-05-16T10:50:35;15.30;99.90
15834;DHT22;8017;50.812;4.934;2023-05-16T10:53:37;15.30;99.90
15834;DHT22;8017;50.812;4.934;2023-05-16T10:56:39;15.10;99.90
15834;DHT22;8017;50.812;4.934;2023-05-16T10:59:43;15.00;99.90
15834;DHT22;8017;50.812;4.934;2023-05-16T11:02:46;15.60;99.90
15834;DHT22;8017;50.812;4.934;2023-05-16T11:05:51;15.70;99.90
15834;DHT22;8017;50.812;4.934;2023-05-16T11:09:12;15.70;99.90
15834;DHT22;8017;50.812;4.934;2023-05-16T11:12:19;16.20;99.90
15834;DHT22;8017;50.812;4.934;2023-05-16T11:15:25;16.40;99.90
15834;DHT22;8017;50.812;4.934;2023-05-16T11:18:31;16.40;99.90
15834;DHT22;8017;50.812;4.934;2023-05-16T11:25:11;15.60;99.90
15834;DHT22;8017;50.812;4.934;2023-05-16T11:28:13;15.50;99.90
15834;DHT22;8017;50.812;4.934;2023-05-16T11:31:17;15.50;99.90
15834;DHT22;8017;50.812;4.934;2023-05-16T11:34:19;15.80;99.90
15834;DHT22;8017;50.812;4.934;2023-05-16T11:37:21;16.20;99.90
15834;DHT22;8017;50.812;4.934;2023-05-16T11:40:26;15.80;99.90
15834;DHT22;8017;50.812;4.934;2023-05-16T11:43:28;15.50;99.90
15834;DHT22;8017;50.812;4.934;2023-05-16T11:46:30;15.40;99.90
15834;DHT22;8017;50.812;4.934;2023-05-16T11:49:32;15.50;99.90
15834;DHT22;8017;50.812;4.934;2023-05-16T11:52:35;15.90;99.90
15834;DHT22;8017;50.812;4.934;2023-05-16T11:55:40;16.70;99.90
15834;DHT22;8017;50.812;4.934;2023-05-16T11:58:42;16.80;99.90
15834;DHT22;8017;50.812;4.934;2023-05-16T12:01:45;16.70;99.90
15834;DHT22;8017;50.812;4.934;2023-05-16T12:04:49;16.40;99.90
15834;DHT22;8017;50.812;4.934;2023-05-16T12:07:51;16.10;99.90
15834;DHT22;8017;50.812;4.934;2023-05-16T12:10:56;15.90;99.90
15834;DHT22;8017;50.812;4.934;2023-05-16T12:13:58;16.30;99.90
15834;DHT22;8017;50.812;4.934;2023-05-16T12:17:01;16.80;99.90
15834;DHT22;8017;50.812;4.934;2023-05-16T12:20:05;17.00;99.90
15834;DHT22;8017;50.812;4.934;2023-05-16T12:23:11;16.40;99.90
15834;DHT22;8017;50.812;4.934;2023-05-16T12:26:15;15.90;99.90
15834;DHT22;8017;50.812;4.934;2023-05-16T12:29:24;16.00;99.90
15834;DHT22;8017;50.812;4.934;2023-05-16T12:32:26;16.00;99.90
15834;DHT22;8017;50.812;4.934;2023-05-16T12:35:30;16.10;99.90
15834;DHT22;8017;50.812;4.934;2023-05-16T12:38:32;16.40;99.90
15834;DHT22;8017;50.812;4.934;2023-05-16T12:41:39;16.50;99.90
15834;DHT22;8017;50.812;4.934;2023-05-16T12:44:44;16.40;99.90
15834;DHT22;8017;50.812;4.934;2023-05-16T12:47:46;16.60;99.90
15834;DHT22;8017;50.812;4.934;2023-05-16T12:50:48;16.80;99.90
15834;DHT22;8017;50.812;4.934;2023-05-16T12:53:51;16.90;99.90
15834;DHT22;8017;50.812;4.934;2023-05-16T12:56:55;17.10;99.90
15834;DHT22;8017;50.812;4.934;2023-05-16T12:59:57;17.20;99.90
15834;DHT22;8017;50.812;4.934;2023-05-16T13:02:59;16.90;99.90
15834;DHT22;8017;50.812;4.934;2023-05-16T13:06:01;16.60;99.90
15834;DHT22;8017;50.812;4.934;2023-05-16T13:09:05;16.90;99.90
15834;DHT22;8017;50.812;4.934;2023-05-16T13:12:09;16.90;99.90
15834;DHT22;8017;50.812;4.934;2023-05-16T13:15:11;16.80;99.90
15834;DHT22;8017;50.812;4.934;2023-05-16T13:18:13;17.20;99.90
15834;DHT22;8017;50.812;4.934;2023-05-16T13:21:15;16.90;99.90
15834;DHT22;8017;50.812;4.934;2023-05-16T13:24:17;17.00;99.90
15834;DHT22;8017;50.812;4.934;2023-05-16T13:27:21;17.00;99.90
15834;DHT22;8017;50.812;4.934;2023-05-16T13:30:23;16.90;99.90
15834;DHT22;8017;50.812;4.934;2023-05-16T13:33:25;17.00;99.90
15834;DHT22;8017;50.812;4.934;2023-05-16T13:36:28;17.10;99.90
15834;DHT22;8017;50.812;4.934;2023-05-16T13:39:30;16.90;99.90
15834;DHT22;8017;50.812;4.934;2023-05-16T13:42:34;17.10;99.90
15834;DHT22;8017;50.812;4.934;2023-05-16T13:45:36;16.90;99.90
15834;DHT22;8017;50.812;4.934;2023-05-16T13:48:38;17.00;99.90
15834;DHT22;8017;50.812;4.934;2023-05-16T13:51:42;17.00;99.90
15834;DHT22;8017;50.812;4.934;2023-05-16T13:54:44;16.90;99.90
15834;DHT22;8017;50.812;4.934;2023-05-16T13:57:47;17.00;99.90
15834;DHT22;8017;50.812;4.934;2023-05-16T14:00:49;16.90;99.90
15834;DHT22;8017;50.812;4.934;2023-05-16T14:03:52;16.60;99.90
15834;DHT22;8017;50.812;4.934;2023-05-16T14:06:54;16.30;99.90
15834;DHT22;8017;50.812;4.934;2023-05-16T14:09:56;16.30;99.90
15834;DHT22;8017;50.812;4.934;2023-05-16T14:12:59;16.40;99.90
15834;DHT22;8017;50.812;4.934;2023-05-16T14:16:02;16.20;99.90
15834;DHT22;8017;50.812;4.934;2023-05-16T14:19:04;16.10;99.90
15834;DHT22;8017;50.812;4.934;2023-05-16T14:22:06;16.20;99.90
15834;DHT22;8017;50.812;4.934;2023-05-16T14:25:08;16.10;99.90
15834;DHT22;8017;50.812;4.934;2023-05-16T14:28:12;16.60;99.90
15834;DHT22;8017;50.812;4.934;2023-05-16T14:31:14;17.00;99.90
15834;DHT22;8017;50.812;4.934;2023-05-16T14:34:16;17.00;99.90
15834;DHT22;8017;50.812;4.934;2023-05-16T14:37:18;17.20;99.90
15834;DHT22;8017;50.812;4.934;2023-05-16T14:40:20;16.70;99.90
15834;DHT22;8017;50.812;4.934;2023-05-16T14:43:24;16.50;99.90
15834;DHT22;8017;50.812;4.934;2023-05-16T14:46:26;16.40;99.90
15834;DHT22;8017;50.812;4.934;2023-05-16T14:49:28;16.70;99.90
15834;DHT22;8017;50.812;4.934;2023-05-16T14:52:30;17.60;99.90
15834;DHT22;8017;50.812;4.934;2023-05-16T14:55:32;17.80;99.90
15834;DHT22;8017;50.812;4.934;2023-05-16T14:58:36;17.30;99.90
15834;DHT22;8017;50.812;4.934;2023-05-16T15:01:38;17.10;99.90
15834;DHT22;8017;50.812;4.934;2023-05-16T15:04:40;17.00;99.90
15834;DHT22;8017;50.812;4.934;2023-05-16T15:07:42;16.80;99.90
15834;DHT22;8017;50.812;4.934;2023-05-16T15:10:44;16.60;99.90
15834;DHT22;8017;50.812;4.934;2023-05-16T15:13:48;16.60;99.90
15834;DHT22;8017;50.812;4.934;2023-05-16T15:16:50;16.50;99.90
15834;DHT22;8017;50.812;4.934;2023-05-16T15:19:52;16.40;99.90
15834;DHT22;8017;50.812;4.934;2023-05-16T15:22:55;16.60;99.90
15834;DHT22;8017;50.812;4.934;2023-05-16T15:25:57;16.70;99.90
15834;DHT22;8017;50.812;4.934;2023-05-16T15:29:01;17.10;99.90
15834;DHT22;8017;50.812;4.934;2023-05-16T15:32:04;17.30;99.90
15834;DHT22;8017;50.812;4.934;2023-05-16T15:35:06;17.30;99.90
15834;DHT22;8017;50.812;4.934;2023-05-16T15:38:08;16.80;99.90
15834;DHT22;8017;50.812;4.934;2023-05-16T15:41:10;16.60;99.90
15834;DHT22;8017;50.812;4.934;2023-05-16T15:44:14;16.40;99.90
15834;DHT22;8017;50.812;4.934;2023-05-16T15:47:16;16.50;99.90
15834;DHT22;8017;50.812;4.934;2023-05-16T15:50:17;16.20;99.90
15834;DHT22;8017;50.812;4.934;2023-05-16T15:53:20;16.10;99.90
15834;DHT22;8017;50.812;4.934;2023-05-16T15:56:21;16.10;99.90
15834;DHT22;8017;50.812;4.934;2023-05-16T15:59:24;16.10;99.90
15834;DHT22;8017;50.812;4.934;2023-05-16T16:02:26;16.00;99.90
15834;DHT22;8017;50.812;4.934;2023-05-16T16:05:28;15.80;99.90
15834;DHT22;8017;50.812;4.934;2023-05-16T16:08:29;16.00;99.90
15834;DHT22;8017;50.812;4.934;2023-05-16T16:11:31;16.20;99.90
15834;DHT22;8017;50.812;4.934;2023-05-16T16:14:34;16.40;99.90
15834;DHT22;8017;50.812;4.934;2023-05-16T16:17:36;16.10;99.90
15834;DHT22;8017;50.812;4.934;2023-05-16T16:20:38;16.00;99.90
15834;DHT22;8017;50.812;4.934;2023-05-16T16:23:40;15.80;99.90
15834;DHT22;8017;50.812;4.934;2023-05-16T16:26:42;15.70;99.90
15834;DHT22;8017;50.812;4.934;2023-05-16T16:29:45;16.50;99.90
15834;DHT22;8017;50.812;4.934;2023-05-16T16:32:47;17.30;99.90
15834;DHT22;8017;50.812;4.934;2023-05-16T16:35:49;17.90;99.90
15834;DHT22;8017;50.812;4.934;2023-05-16T16:38:51;18.50;99.90
15834;DHT22;8017;50.812;4.934;2023-05-16T16:41:52;18.40;99.90
15834;DHT22;8017;50.812;4.934;2023-05-16T16:44:57;18.60;99.90
15834;DHT22;8017;50.812;4.934;2023-05-16T16:47:59;19.00;99.90
15834;DHT22;8017;50.812;4.934;2023-05-16T16:51:01;19.60;99.90
15834;DHT22;8017;50.812;4.934;2023-05-16T16:54:03;19.40;99.90
15834;DHT22;8017;50.812;4.934;2023-05-16T16:57:04;19.50;99.90
15834;DHT22;8017;50.812;4.934;2023-05-16T17:00:08;18.50;99.90
15834;DHT22;8017;50.812;4.934;2023-05-16T17:03:10;17.50;99.90
15834;DHT22;8017;50.812;4.934;2023-05-16T17:06:12;17.10;99.90
15834;DHT22;8017;50.812;4.934;2023-05-16T17:09:14;16.50;99.90
15834;DHT22;8017;50.812;4.934;2023-05-16T17:12:17;16.40;99.90
15834;DHT22;8017;50.812;4.934;2023-05-16T17:15:22;16.30;99.90
15834;DHT22;8017;50.812;4.934;2023-05-16T17:18:24;16.20;99.90
15834;DHT22;8017;50.812;4.934;2023-05-16T17:21:26;16.30;99.90
15834;DHT22;8017;50.812;4.934;2023-05-16T17:24:28;16.70;99.90
15834;DHT22;8017;50.812;4.934;2023-05-16T17:27:29;17.50;99.90
15834;DHT22;8017;50.812;4.934;2023-05-16T17:30:33;18.00;99.90
15834;DHT22;8017;50.812;4.934;2023-05-16T17:33:35;18.50;99.90
15834;DHT22;8017;50.812;4.934;2023-05-16T17:36:36;18.70;99.90
15834;DHT22;8017;50.812;4.934;2023-05-16T17:39:38;19.20;99.90
15834;DHT22;8017;50.812;4.934;2023-05-16T17:42:40;19.50;99.90
15834;DHT22;8017;50.812;4.934;2023-05-16T17:45:43;19.40;99.90
15834;DHT22;8017;50.812;4.934;2023-05-16T17:48:46;19.80;99.90
15834;DHT22;8017;50.812;4.934;2023-05-16T17:51:48;19.70;99.90
15834;DHT22;8017;50.812;4.934;2023-05-16T17:54:50;18.70;99.90
15834;DHT22;8017;50.812;4.934;2023-05-16T17:57:52;18.00;99.90
15834;DHT22;8017;50.812;4.934;2023-05-16T18:00:55;17.00;99.90
15834;DHT22;8017;50.812;4.934;2023-05-16T18:03:57;16.10;99.90
15834;DHT22;8017;50.812;4.934;2023-05-16T18:06:58;15.60;99.90
15834;DHT22;8017;50.812;4.934;2023-05-16T18:10:00;15.20;99.90
15834;DHT22;8017;50.812;4.934;2023-05-16T18:13:02;14.90;99.90
15834;DHT22;8017;50.812;4.934;2023-05-16T18:16:06;14.70;99.90
15834;DHT22;8017;50.812;4.934;2023-05-16T18:19:09;14.50;99.90
15834;DHT22;8017;50.812;4.934;2023-05-16T18:22:11;14.30;99.90
15834;DHT22;8017;50.812;4.934;2023-05-16T18:25:13;14.10;99.90
15834;DHT22;8017;50.812;4.934;2023-05-16T18:28:15;14.00;99.90
15834;DHT22;8017;50.812;4.934;2023-05-16T18:31:19;13.90;99.90
15834;DHT22;8017;50.812;4.934;2023-05-16T18:34:21;13.90;99.90
15834;DHT22;8017;50.812;4.934;2023-05-16T18:37:22;13.80;99.90
15834;DHT22;8017;50.812;4.934;2023-05-16T18:40:24;13.80;99.90
15834;DHT22;8017;50.812;4.934;2023-05-16T18:43:26;13.80;99.90
15834;DHT22;8017;50.812;4.934;2023-05-16T18:46:29;13.80;99.90
15834;DHT22;8017;50.812;4.934;2023-05-16T18:49:30;13.70;99.90
15834;DHT22;8017;50.812;4.934;2023-05-16T18:52:33;13.70;99.90
15834;DHT22;8017;50.812;4.934;2023-05-16T18:55:36;13.70;99.90
15834;DHT22;8017;50.812;4.934;2023-05-16T18:58:37;13.60;99.90
15834;DHT22;8017;50.812;4.934;2023-05-16T19:01:40;13.50;99.90
15834;DHT22;8017;50.812;4.934;2023-05-16T19:04:43;13.40;99.90
15834;DHT22;8017;50.812;4.934;2023-05-16T19:07:45;13.30;99.90
15834;DHT22;8017;50.812;4.934;2023-05-16T19:10:47;13.20;99.90
15834;DHT22;8017;50.812;4.934;2023-05-16T19:13:50;13.00;99.90
15834;DHT22;8017;50.812;4.934;2023-05-16T19:16:53;12.90;99.90
15834;DHT22;8017;50.812;4.934;2023-05-16T19:19:55;12.90;99.90
15834;DHT22;8017;50.812;4.934;2023-05-16T19:22:57;12.80;99.90
15834;DHT22;8017;50.812;4.934;2023-05-16T19:25:59;12.80;99.90
15834;DHT22;8017;50.812;4.934;2023-05-16T19:29:00;12.90;99.90
15834;DHT22;8017;50.812;4.934;2023-05-16T19:32:04;13.00;99.90
15834;DHT22;8017;50.812;4.934;2023-05-16T19:35:06;13.00;99.90
15834;DHT22;8017;50.812;4.934;2023-05-16T19:38:08;13.10;99.90
15834;DHT22;8017;50.812;4.934;2023-05-16T19:41:09;13.10;99.90